Time;durP1;ratioP1;P1;durP2;ratioP2;P2;SDS_P1;SDS_P2;PMS_P1;PMS_P2;Temp;Humidity;BMP_temperature;BMP_pressure;BME280_temperature;BME280_humidity;BME280_pressure;Samples;Min_cycle;Max_cycle;Signal;HPM_P1;HPM_P2
2023/07/26 00:01:54;;;;;;;3.95;2.38;;;16.40;99.90;;;;;;5054903;28;20108;-84
2023/07/26 00:04:20;;;;;;;4.28;2.33;;;16.40;99.90;;;;;;5055088;28;20028;-84
2023/07/26 00:06:48;;;;;;;3.78;2.47;;;16.40;99.90;;;;;;5054176;28;20131;-84
2023/07/26 00:09:19;;;;;;;4.57;2.80;;;16.10;99.90;;;;;;5054789;28;20119;-84
2023/07/26 00:11:45;;;;;;;3.35;2.58;;;16.30;99.90;;;;;;5054705;28;20078;-84
2023/07/26 00:14:11;;;;;;;4.93;2.80;;;16.60;99.90;;;;;;5054259;28;20427;-84
2023/07/26 00:16:51;;;;;;;3.10;2.78;;;16.30;99.90;;;;;;5054211;28;20418;-84
2023/07/26 00:19:23;;;;;;;4.63;2.67;;;16.60;99.90;;;;;;5054864;28;20056;-84
2023/07/26 00:21:49;;;;;;;3.00;2.60;;;16.20;99.90;;;;;;5053737;28;20075;-84
2023/07/26 00:24:18;;;;;;;3.58;3.28;;;16.30;99.90;;;;;;5054727;28;20033;-84
2023/07/26 00:26:56;;;;;;;3.78;3.42;;;16.30;99.90;;;;;;5054246;28;20025;-84
2023/07/26 00:29:21;;;;;;;3.33;3.03;;;16.00;99.90;;;;;;5054085;28;20045;-84
2023/07/26 00:32:02;;;;;;;3.88;3.17;;;16.70;99.90;;;;;;5053987;28;20021;-84
2023/07/26 00:34:30;;;;;;;3.10;2.60;;;16.30;99.90;;;;;;5054397;28;20064;-84
2023/07/26 00:37:16;;;;;;;3.63;3.10;;;16.30;99.90;;;;;;5053241;28;20135;-84
2023/07/26 00:39:50;;;;;;;2.72;2.53;;;16.40;99.90;;;;;;5054180;28;20036;-83
2023/07/26 00:42:18;;;;;;;5.28;3.17;;;16.00;99.90;;;;;;5053864;28;20439;-83
2023/07/26 00:44:44;;;;;;;4.18;3.20;;;16.30;99.90;;;;;;5054022;28;20017;-83
2023/07/26 00:47:10;;;;;;;3.35;2.35;;;16.30;99.90;;;;;;5054413;28;20429;-83
2023/07/26 00:49:36;;;;;;;3.78;2.55;;;16.30;99.90;;;;;;5053470;28;20098;-83
2023/07/26 00:52:02;;;;;;;2.58;2.38;;;16.40;99.90;;;;;;5054500;28;20021;-84
2023/07/26 00:54:27;;;;;;;4.78;2.60;;;16.30;99.90;;;;;;5053971;28;20100;-83
2023/07/26 00:56:53;;;;;;;4.13;2.38;;;16.30;99.90;;;;;;5053495;28;20071;-84
2023/07/26 00:59:19;;;;;;;2.55;2.20;;;16.30;99.90;;;;;;5054010;28;20057;-83
2023/07/26 01:01:44;;;;;;;3.47;2.70;;;16.30;99.90;;;;;;5047389;28;20075;-83
2023/07/26 01:04:10;;;;;;;3.33;2.38;;;16.30;99.90;;;;;;5039110;28;20025;-83
2023/07/26 01:07:14;;;;;;;4.43;3.25;;;16.60;99.90;;;;;;5033871;28;20158;-83
2023/07/26 01:09:51;;;;;;;3.05;2.85;;;16.20;99.90;;;;;;5033597;28;20551;-83
2023/07/26 01:12:22;;;;;;;7.60;2.60;;;16.10;99.90;;;;;;5045919;28;20032;-83
2023/07/26 01:15:00;;;;;;;4.72;2.60;;;16.10;99.90;;;;;;5053177;28;20025;-83
2023/07/26 01:17:26;;;;;;;2.42;2.22;;;16.10;99.90;;;;;;5052152;28;20036;-83
2023/07/26 01:19:51;;;;;;;2.83;2.58;;;16.10;99.90;;;;;;5048499;28;20025;-83
2023/07/26 01:22:17;;;;;;;4.57;2.80;;;16.10;99.90;;;;;;5033216;28;20029;-83
2023/07/26 01:24:42;;;;;;;3.67;3.03;;;16.40;99.90;;;;;;5032735;28;20023;-83
2023/07/26 01:27:08;;;;;;;4.65;3.40;;;16.10;99.90;;;;;;5036827;28;20025;-83
2023/07/26 01:29:34;;;;;;;4.05;3.75;;;16.10;99.90;;;;;;5052617;28;20025;-83
2023/07/26 01:32:00;;;;;;;3.85;3.55;;;16.10;99.90;;;;;;5052432;28;20045;-83
2023/07/26 01:34:26;;;;;;;7.72;3.88;;;16.10;99.90;;;;;;5053343;28;20025;-83
2023/07/26 01:36:52;;;;;;;5.30;3.88;;;16.10;99.90;;;;;;5052992;28;20079;-83
2023/07/26 01:39:19;;;;;;;4.57;3.75;;;16.00;99.90;;;;;;5052303;28;20029;-83
2023/07/26 01:41:46;;;;;;;6.55;3.67;;;16.00;99.90;;;;;;5052892;28;20108;-83
2023/07/26 01:44:12;;;;;;;6.10;3.85;;;15.90;99.90;;;;;;5052843;28;20093;-83
2023/07/26 01:46:38;;;;;;;3.97;3.67;;;16.00;99.90;;;;;;5052213;28;20059;-83
2023/07/26 01:49:04;;;;;;;6.40;4.13;;;16.00;99.90;;;;;;5053209;28;20056;-83
2023/07/26 01:51:29;;;;;;;4.95;4.40;;;15.90;99.90;;;;;;5052861;28;20053;-83
2023/07/26 01:53:55;;;;;;;4.53;3.55;;;16.00;99.90;;;;;;5050436;28;20037;-84
2023/07/26 01:56:21;;;;;;;6.57;3.80;;;15.90;99.90;;;;;;5052528;28;20040;-83
2023/07/26 01:58:46;;;;;;;7.20;4.05;;;15.90;99.90;;;;;;5052658;28;20469;-83
2023/07/26 02:01:12;;;;;;;7.03;4.20;;;16.00;99.90;;;;;;5052188;28;20025;-83
2023/07/26 02:03:38;;;;;;;5.22;3.60;;;15.90;99.90;;;;;;5052048;28;20385;-83
2023/07/26 02:06:03;;;;;;;3.80;3.50;;;15.90;99.90;;;;;;5052576;28;20071;-83
2023/07/26 02:08:29;;;;;;;5.22;4.20;;;15.90;99.90;;;;;;5051989;28;20049;-82
2023/07/26 02:11:06;;;;;;;5.00;4.25;;;15.90;99.90;;;;;;5052836;28;20028;-83
2023/07/26 02:13:32;;;;;;;4.38;3.97;;;15.80;99.90;;;;;;5051444;28;20295;-85
2023/07/26 02:15:57;;;;;;;4.88;4.38;;;15.80;99.90;;;;;;5052119;28;20033;-85
2023/07/26 02:18:25;;;;;;;6.63;4.53;;;16.20;99.90;;;;;;5052468;28;20029;-83
2023/07/26 02:21:00;;;;;;;5.47;4.43;;;15.70;99.90;;;;;;5051123;28;20117;-85
2023/07/26 02:23:43;;;;;;;4.53;4.13;;;15.70;99.90;;;;;;5051661;28;20075;-85
2023/07/26 02:26:16;;;;;;;5.60;4.78;;;15.70;99.90;;;;;;5052370;28;20029;-85
2023/07/26 02:28:52;;;;;;;;;;;;;;;;;;;;;
2023/07/26 02:31:18;;;;;;;5.32;4.80;;;15.50;99.90;;;;;;5052420;28;20025;-83
2023/07/26 02:33:43;;;;;;;5.68;4.90;;;16.90;99.90;;;;;;5052047;28;20116;-85
2023/07/26 02:36:09;;;;;;;5.60;5.10;;;15.50;99.90;;;;;;5051274;28;20033;-84
2023/07/26 02:38:35;;;;;;;8.38;5.13;;;15.50;99.90;;;;;;5052212;28;20029;-84
2023/07/26 02:41:00;;;;;;;5.55;4.57;;;15.50;99.90;;;;;;5051887;28;20025;-84
2023/07/26 02:43:26;;;;;;;5.28;4.57;;;15.50;99.90;;;;;;5051628;28;20031;-84
2023/07/26 02:45:52;;;;;;;5.80;5.22;;;15.50;99.90;;;;;;5051695;28;20052;-85
2023/07/26 02:48:17;;;;;;;6.10;5.45;;;15.50;99.90;;;;;;5038748;28;20033;-84
2023/07/26 02:50:43;;;;;;;6.03;5.07;;;15.50;99.90;;;;;;5032235;28;20474;-84
2023/07/26 02:53:08;;;;;;;5.97;5.47;;;15.50;99.90;;;;;;5032128;28;20026;-84
2023/07/26 02:55:34;;;;;;;6.03;4.80;;;15.50;99.90;;;;;;5031386;28;20033;-84
2023/07/26 02:58:00;;;;;;;6.45;4.93;;;15.50;99.90;;;;;;5032004;28;20037;-85
2023/07/26 03:00:25;;;;;;;4.47;4.18;;;15.50;99.90;;;;;;5031976;28;20025;-84
2023/07/26 03:02:53;;;;;;;5.40;4.97;;;15.50;99.90;;;;;;5030920;28;20171;-84
2023/07/26 03:05:38;;;;;;;5.03;4.63;;;15.40;99.90;;;;;;5031884;28;20030;-85
2023/07/26 03:08:04;;;;;;;5.25;4.75;;;15.40;99.90;;;;;;5032364;28;20013;-84
2023/07/26 03:10:36;;;;;;;5.78;5.18;;;15.40;99.90;;;;;;5030885;28;20042;-85
2023/07/26 03:13:02;;;;;;;6.75;4.40;;;15.40;99.90;;;;;;5031450;28;20038;-85
2023/07/26 03:15:38;;;;;;;5.57;5.13;;;15.40;99.90;;;;;;5013880;28;20032;-85
2023/07/26 03:18:09;;;;;;;5.00;4.60;;;15.30;99.90;;;;;;5031496;28;20044;-84
2023/07/26 03:20:45;;;;;;;4.72;4.43;;;15.30;99.90;;;;;;5031300;28;20032;-84
2023/07/26 03:23:20;;;;;;;6.85;5.25;;;15.40;99.90;;;;;;5032024;28;20032;-84
2023/07/26 03:25:45;;;;;;;5.55;5.07;;;15.40;99.90;;;;;;5030634;28;20469;-84
2023/07/26 03:28:11;;;;;;;5.70;4.88;;;15.40;99.90;;;;;;5032177;28;20044;-84
2023/07/26 03:30:42;;;;;;;5.07;4.57;;;15.40;99.90;;;;;;5031259;28;20040;-84
2023/07/26 03:33:11;;;;;;;5.45;4.80;;;15.40;99.90;;;;;;5032125;28;20044;-85
2023/07/26 03:35:37;;;;;;;6.35;5.05;;;15.40;99.90;;;;;;5033881;28;20025;-84
2023/07/26 03:38:08;;;;;;;5.65;4.88;;;15.40;99.90;;;;;;5035056;28;20034;-84
2023/07/26 03:40:34;;;;;;;5.75;4.80;;;15.40;99.90;;;;;;5035393;28;20500;-84
2023/07/26 03:42:59;;;;;;;5.28;4.25;;;15.50;99.90;;;;;;5035526;28;20112;-84
2023/07/26 03:45:27;;;;;;;6.43;5.30;;;15.50;99.90;;;;;;5034734;28;20030;-84
2023/07/26 03:47:55;;;;;;;4.63;4.22;;;15.50;99.90;;;;;;5027229;28;20088;-84
2023/07/26 03:50:33;;;;;;;4.70;4.30;;;15.50;99.90;;;;;;5035854;28;20438;-84
2023/07/26 03:53:16;;;;;;;9.60;5.80;;;15.40;99.90;;;;;;5034827;28;20037;-84
2023/07/26 03:55:41;;;;;;;5.10;4.65;;;15.40;99.90;;;;;;5035709;28;20022;-84
2023/07/26 03:58:07;;;;;;;5.55;4.72;;;15.90;99.90;;;;;;5035085;28;20029;-84
2023/07/26 04:00:39;;;;;;;4.65;4.25;;;15.40;99.90;;;;;;5034140;28;20025;-84
2023/07/26 04:03:05;;;;;;;5.45;4.40;;;15.40;99.90;;;;;;5035312;28;20029;-84
2023/07/26 04:05:44;;;;;;;4.80;4.38;;;15.80;99.90;;;;;;5034677;28;20024;-84
2023/07/26 04:08:16;;;;;;;5.68;4.07;;;15.40;99.90;;;;;;5034880;28;20108;-84
2023/07/26 04:10:41;;;;;;;4.50;4.05;;;15.80;99.90;;;;;;5034066;28;20099;-84
2023/07/26 04:13:07;;;;;;;4.28;3.88;;;15.40;99.90;;;;;;5034691;28;20029;-84
2023/07/26 04:15:32;;;;;;;5.45;4.07;;;15.90;99.90;;;;;;5034257;28;20335;-84
2023/07/26 04:17:58;;;;;;;4.10;3.80;;;16.70;99.90;;;;;;5034757;28;20045;-84
2023/07/26 04:20:24;;;;;;;4.60;4.00;;;16.20;99.90;;;;;;5034287;28;20022;-84
2023/07/26 04:22:49;;;;;;;5.72;4.07;;;15.40;99.90;;;;;;5034638;28;20025;-84
2023/07/26 04:25:15;;;;;;;3.92;3.53;;;15.40;99.90;;;;;;5034679;28;20366;-84
2023/07/26 04:27:41;;;;;;;4.95;3.78;;;15.40;99.90;;;;;;5033711;28;20562;-84
2023/07/26 04:30:13;;;;;;;5.38;4.38;;;15.50;99.90;;;;;;5034432;28;20033;-84
2023/07/26 04:32:38;;;;;;;5.95;4.90;;;16.10;99.90;;;;;;5040170;28;20067;-84
2023/07/26 04:35:04;;;;;;;5.38;4.90;;;15.70;99.90;;;;;;5036284;28;20051;-84
2023/07/26 04:37:30;;;;;;;5.22;4.82;;;15.50;99.90;;;;;;5052460;28;20064;-84
2023/07/26 04:39:56;;;;;;;4.90;4.40;;;16.00;99.90;;;;;;5054172;28;20063;-84
2023/07/26 04:42:21;;;;;;;8.60;5.60;;;15.60;99.90;;;;;;5053682;28;20025;-84
2023/07/26 04:44:47;;;;;;;6.10;5.53;;;15.50;99.90;;;;;;5054144;28;20028;-83
2023/07/26 04:47:15;;;;;;;6.75;5.28;;;15.50;99.90;;;;;;5053842;28;20029;-84
2023/07/26 04:49:41;;;;;;;7.13;5.55;;;15.50;99.90;;;;;;5053845;28;20029;-84
2023/07/26 04:52:07;;;;;;;5.88;5.30;;;15.50;99.90;;;;;;5054397;28;20035;-84
2023/07/26 04:54:32;;;;;;;6.43;5.82;;;15.50;99.90;;;;;;5054156;28;20098;-84
2023/07/26 04:56:58;;;;;;;7.07;6.43;;;15.50;99.90;;;;;;5036934;28;20415;-84
2023/07/26 04:59:24;;;;;;;7.60;5.72;;;15.50;99.90;;;;;;5033833;28;20052;-84
2023/07/26 05:01:50;;;;;;;6.82;6.13;;;15.50;99.90;;;;;;5033682;28;20036;-84
2023/07/26 05:04:16;;;;;;;11.00;6.95;;;15.50;99.90;;;;;;5033465;28;20022;-84
2023/07/26 05:06:41;;;;;;;13.30;7.40;;;15.60;99.90;;;;;;5033809;28;20514;-84
2023/07/26 05:09:15;;;;;;;7.57;6.88;;;15.50;99.90;;;;;;5051489;28;20045;-84
2023/07/26 05:11:41;;;;;;;7.65;6.65;;;15.50;99.90;;;;;;5053125;28;20032;-84
2023/07/26 05:14:12;;;;;;;8.77;6.70;;;15.60;99.90;;;;;;5053459;28;20396;-84
2023/07/26 05:16:38;;;;;;;9.45;7.18;;;15.60;99.90;;;;;;5052367;28;20063;-84
2023/07/26 05:19:04;;;;;;;10.35;7.90;;;15.60;99.90;;;;;;5053812;28;20021;-84
2023/07/26 05:21:29;;;;;;;7.78;7.05;;;15.90;99.90;;;;;;5052944;28;20430;-84
2023/07/26 05:23:55;;;;;;;8.02;6.63;;;15.70;99.90;;;;;;5052178;28;20497;-83
2023/07/26 05:26:20;;;;;;;8.05;7.25;;;15.70;99.90;;;;;;5051563;28;20465;-84
2023/07/26 05:28:46;;;;;;;9.50;7.50;;;15.70;99.90;;;;;;5051692;28;20082;-84
2023/07/26 05:31:11;;;;;;;8.80;7.63;;;15.70;99.90;;;;;;5051198;28;20043;-84
2023/07/26 05:33:37;;;;;;;8.40;7.60;;;15.70;99.90;;;;;;5048790;28;20036;-85
2023/07/26 05:36:03;;;;;;;11.48;7.70;;;15.70;99.90;;;;;;5049618;28;20043;-85
2023/07/26 05:38:28;;;;;;;11.68;8.23;;;15.70;99.90;;;;;;5051406;28;20042;-86
2023/07/26 05:41:02;;;;;;;10.88;8.75;;;15.70;99.90;;;;;;5052068;28;20064;-86
2023/07/26 05:43:27;;;;;;;9.98;8.80;;;15.70;99.90;;;;;;5056918;28;20084;-86
2023/07/26 05:45:54;;;;;;;10.40;9.38;;;15.70;99.90;;;;;;5053317;28;20048;-86
2023/07/26 05:48:20;;;;;;;11.95;9.35;;;15.70;99.90;;;;;;5052656;28;20465;-86
2023/07/26 05:50:47;;;;;;;14.57;9.75;;;15.60;99.90;;;;;;5052592;28;20105;-86
2023/07/26 05:53:13;;;;;;;13.75;9.18;;;15.70;99.90;;;;;;5052350;28;20032;-86
2023/07/26 05:55:39;;;;;;;14.50;10.32;;;15.60;99.90;;;;;;5052327;28;20021;-85
2023/07/26 05:58:05;;;;;;;12.35;11.13;;;15.70;99.90;;;;;;5051741;28;20123;-85
2023/07/26 06:00:31;;;;;;;10.52;9.43;;;15.70;99.90;;;;;;5051784;28;20427;-84
2023/07/26 06:02:57;;;;;;;11.85;9.55;;;15.70;99.90;;;;;;5052472;28;20036;-85
2023/07/26 06:05:22;;;;;;;12.65;9.70;;;15.70;99.90;;;;;;5051536;28;20021;-85
2023/07/26 06:07:49;;;;;;;15.68;10.85;;;15.70;99.90;;;;;;5051845;28;20039;-85
2023/07/26 06:10:15;;;;;;;14.38;8.43;;;15.70;99.90;;;;;;5049203;28;20071;-85
2023/07/26 06:12:41;;;;;;;10.95;9.68;;;15.70;99.90;;;;;;5050932;28;20053;-84
2023/07/26 06:15:07;;;;;;;13.25;9.00;;;15.90;99.90;;;;;;5052343;28;20422;-85
2023/07/26 06:17:33;;;;;;;13.65;9.02;;;15.70;99.90;;;;;;5051725;28;20032;-85
2023/07/26 06:19:59;;;;;;;15.25;7.15;;;15.70;99.90;;;;;;5050438;28;20100;-85
2023/07/26 06:22:25;;;;;;;7.93;6.85;;;15.70;99.90;;;;;;5052020;28;20100;-85
2023/07/26 06:24:50;;;;;;;6.97;6.10;;;15.70;99.90;;;;;;5051911;28;20486;-85
2023/07/26 06:27:25;;;;;;;6.97;6.20;;;15.70;99.90;;;;;;5051900;28;20089;-85
2023/07/26 06:29:52;;;;;;;9.70;6.60;;;15.90;99.90;;;;;;5052006;28;20061;-85
2023/07/26 06:32:30;;;;;;;7.90;7.20;;;15.80;99.90;;;;;;5052456;28;20037;-85
2023/07/26 06:34:57;;;;;;;9.98;8.05;;;15.80;99.90;;;;;;5051784;28;20025;-83
2023/07/26 06:37:22;;;;;;;12.40;8.05;;;15.90;99.90;;;;;;5053052;28;20045;-84
2023/07/26 06:39:48;;;;;;;9.50;8.05;;;16.30;99.90;;;;;;5052396;28;20032;-84
2023/07/26 06:42:19;;;;;;;9.68;7.05;;;15.80;99.90;;;;;;5051642;28;20027;-83
2023/07/26 06:44:54;;;;;;;19.55;7.78;;;15.80;99.90;;;;;;5053181;28;20033;-83
2023/07/26 06:47:25;;;;;;;8.15;5.78;;;16.40;99.90;;;;;;5053408;28;20025;-84
2023/07/26 06:49:57;;;;;;;9.65;6.13;;;16.30;99.90;;;;;;5051649;28;20024;-84
2023/07/26 06:52:31;;;;;;;8.07;5.30;;;15.70;99.90;;;;;;5051936;28;20112;-82
2023/07/26 06:54:57;;;;;;;6.00;5.45;;;15.70;99.90;;;;;;5048224;28;20022;-82
2023/07/26 06:57:23;;;;;;;7.07;6.47;;;16.30;99.90;;;;;;5048652;28;20452;-83
2023/07/26 06:59:55;;;;;;;7.65;6.22;;;15.50;99.90;;;;;;5049328;28;20036;-83
2023/07/26 07:02:20;;;;;;;13.48;6.32;;;15.80;99.90;;;;;;5049029;28;20049;-83
2023/07/26 07:04:46;;;;;;;10.27;6.82;;;15.80;99.90;;;;;;5051078;28;20067;-85
2023/07/26 07:07:11;;;;;;;9.80;6.30;;;15.90;99.90;;;;;;5051437;28;20032;-83
2023/07/26 07:09:42;;;;;;;8.57;5.72;;;15.90;99.90;;;;;;5053171;28;20430;-84
2023/07/26 07:12:09;;;;;;;7.32;5.25;;;17.30;99.90;;;;;;5055577;28;20111;-84
2023/07/26 07:14:35;;;;;;;8.40;6.15;;;16.10;99.90;;;;;;5055365;28;20025;-85
2023/07/26 07:17:06;;;;;;;5.85;5.28;;;16.30;99.90;;;;;;5054565;28;20465;-84
2023/07/26 07:19:32;;;;;;;9.90;5.68;;;16.20;99.90;;;;;;5053431;28;20021;-85
2023/07/26 07:22:16;;;;;;;7.30;5.80;;;16.30;99.90;;;;;;5055731;28;20055;-86
2023/07/26 07:24:53;;;;;;;6.47;5.15;;;16.30;99.90;;;;;;5053229;28;20075;-86
2023/07/26 07:27:30;;;;;;;10.65;6.22;;;16.70;99.90;;;;;;5053529;28;20025;-87
2023/07/26 07:29:59;;;;;;;5.05;4.65;;;16.40;99.90;;;;;;5054507;28;20409;-85
2023/07/26 07:32:37;;;;;;;7.32;4.38;;;16.50;99.90;;;;;;5057975;28;20017;-86
2023/07/26 07:35:04;;;;;;;7.50;4.55;;;16.50;99.90;;;;;;5052590;28;20025;-85
2023/07/26 07:37:36;;;;;;;8.30;6.03;;;16.60;99.90;;;;;;5053813;28;20045;-87
2023/07/26 07:40:34;;;;;;;6.50;5.68;;;17.50;99.90;;;;;;5062670;23;20155;-85
2023/07/26 07:43:00;;;;;;;6.47;5.45;;;16.60;99.90;;;;;;5161389;22;20144;-85
2023/07/26 07:45:25;;;;;;;5.68;5.10;;;16.90;99.90;;;;;;5055150;28;20104;-87
2023/07/26 07:47:54;;;;;;;6.00;4.45;;;17.10;99.90;;;;;;5055296;28;20476;-85
2023/07/26 07:50:19;;;;;;;12.02;4.93;;;16.60;99.90;;;;;;5055790;28;20029;-82
2023/07/26 07:52:45;;;;;;;7.25;4.22;;;16.60;99.90;;;;;;5054603;28;20101;-83
2023/07/26 07:55:11;;;;;;;5.63;3.80;;;16.60;99.90;;;;;;5055311;28;20029;-85
2023/07/26 07:57:40;;;;;;;11.45;4.43;;;16.80;99.90;;;;;;5055103;28;20036;-87
2023/07/26 08:00:12;;;;;;;4.78;3.05;;;16.70;99.90;;;;;;5054443;28;20021;-86
2023/07/26 08:02:42;;;;;;;6.43;3.70;;;16.70;99.90;;;;;;5054980;28;20358;-86
2023/07/26 08:05:10;;;;;;;8.35;4.00;;;16.80;99.90;;;;;;5062010;23;20053;-89
2023/07/26 08:07:36;;;;;;;4.70;3.53;;;16.80;99.90;;;;;;5056305;28;20025;-87
2023/07/26 08:10:03;;;;;;;8.77;4.65;;;17.40;99.90;;;;;;5055038;28;20528;-85
2023/07/26 08:15:14;;;;;;;7.00;3.95;;;17.00;99.90;;;;;;5043967;28;20373;-85
2023/07/26 08:17:40;;;;;;;5.45;4.03;;;17.00;99.90;;;;;;5054869;28;20029;-84
2023/07/26 08:20:25;;;;;;;8.10;3.47;;;17.60;99.90;;;;;;5050745;28;20107;-87
2023/07/26 08:22:50;;;;;;;5.00;3.45;;;17.80;99.90;;;;;;5044342;28;20036;-85
2023/07/26 08:25:16;;;;;;;10.30;3.88;;;17.60;99.90;;;;;;5048903;28;20021;-83
2023/07/26 08:27:43;;;;;;;5.93;3.70;;;17.00;99.90;;;;;;5046673;28;20082;-84
2023/07/26 08:30:09;;;;;;;4.95;3.47;;;17.00;99.90;;;;;;5047571;28;20447;-83
2023/07/26 08:32:35;;;;;;;3.80;3.40;;;17.00;99.90;;;;;;5051009;28;20108;-82
2023/07/26 08:35:04;;;;;;;7.78;3.67;;;17.00;99.90;;;;;;5045329;28;20395;-87
2023/07/26 08:37:29;;;;;;;7.25;4.63;;;16.90;99.90;;;;;;5053660;28;20036;-85
2023/07/26 08:39:55;;;;;;;3.47;2.70;;;17.00;99.90;;;;;;5038660;28;20109;-84
2023/07/26 08:42:21;;;;;;;6.20;3.40;;;17.10;99.90;;;;;;5038429;28;20036;-83
2023/07/26 08:44:50;;;;;;;4.00;2.95;;;17.10;99.90;;;;;;5049186;28;20484;-83
2023/07/26 08:47:17;;;;;;;5.47;3.10;;;17.30;99.90;;;;;;5051544;28;20025;-86
2023/07/26 08:49:43;;;;;;;6.13;3.08;;;17.40;99.90;;;;;;5034774;28;20067;-82
2023/07/26 08:52:09;;;;;;;4.03;2.92;;;17.40;99.90;;;;;;5034736;28;20113;-84
2023/07/26 08:54:38;;;;;;;3.83;2.92;;;17.80;99.90;;;;;;5044455;28;20096;-84
2023/07/26 08:57:04;;;;;;;5.43;3.42;;;17.30;99.90;;;;;;5046951;28;20077;-87
2023/07/26 08:59:29;;;;;;;8.55;2.95;;;17.30;99.90;;;;;;5035282;28;20414;-91
2023/07/26 09:01:56;;;;;;;6.25;3.50;;;17.40;99.90;;;;;;5039730;28;20025;-85
2023/07/26 09:04:23;;;;;;;6.10;3.55;;;17.40;99.90;;;;;;5047931;28;20046;-83
2023/07/26 09:06:50;;;;;;;4.85;3.30;;;17.70;99.90;;;;;;5042671;28;20036;-89
2023/07/26 09:09:16;;;;;;;6.85;3.92;;;17.50;99.90;;;;;;5051529;28;20021;-90
2023/07/26 09:11:49;;;;;;;4.63;3.35;;;17.50;99.90;;;;;;5056208;28;20034;-88
2023/07/26 09:14:15;;;;;;;4.40;3.20;;;17.60;99.90;;;;;;5050364;28;20075;-90
2023/07/26 09:16:41;;;;;;;3.65;3.10;;;17.60;99.90;;;;;;5049244;28;20025;-88
2023/07/26 09:19:06;;;;;;;4.95;3.28;;;17.50;99.90;;;;;;5052927;28;20036;-89
2023/07/26 09:21:34;;;;;;;7.95;3.47;;;17.50;99.90;;;;;;5054155;28;20035;-89
2023/07/26 09:24:01;;;;;;;9.88;3.55;;;17.60;99.90;;;;;;5034810;28;20052;-90
2023/07/26 09:26:42;;;;;;;4.03;2.58;;;17.60;99.90;;;;;;5043498;28;20033;-90
2023/07/26 09:29:13;;;;;;;3.80;2.90;;;17.80;99.90;;;;;;5044935;28;20029;-89
2023/07/26 09:31:42;;;;;;;4.65;2.85;;;17.70;99.90;;;;;;5045555;28;20033;-86
2023/07/26 09:34:12;;;;;;;4.40;3.30;;;17.70;99.90;;;;;;5037412;28;20052;-87
2023/07/26 09:36:41;;;;;;;5.10;3.28;;;17.70;99.90;;;;;;5043138;28;20317;-88
2023/07/26 09:39:07;;;;;;;7.75;3.40;;;17.90;99.90;;;;;;5039002;28;20040;-86
2023/07/26 09:41:33;;;;;;;5.43;2.92;;;18.30;99.90;;;;;;5041184;28;20029;-86
2023/07/26 09:44:01;;;;;;;5.32;2.97;;;17.90;99.90;;;;;;5037902;28;20033;-86
2023/07/26 09:46:27;;;;;;;3.25;2.60;;;17.90;99.90;;;;;;5040976;28;20139;-88
2023/07/26 09:48:58;;;;;;;6.88;2.60;;;17.90;99.90;;;;;;5030928;28;20124;-82
2023/07/26 09:51:29;;;;;;;3.38;2.45;;;17.90;99.90;;;;;;5042552;28;20040;-84
2023/07/26 09:54:02;;;;;;;3.03;2.75;;;18.50;99.90;;;;;;5035600;28;20084;-85
2023/07/26 09:56:35;;;;;;;2.67;2.40;;;18.00;99.90;;;;;;5031679;28;20033;-83
2023/07/26 09:59:01;;;;;;;4.65;2.30;;;18.50;99.90;;;;;;5044214;28;20029;-91
2023/07/26 10:01:33;;;;;;;4.30;2.25;;;18.30;99.90;;;;;;5048041;28;20044;-89
2023/07/26 10:04:03;;;;;;;5.57;2.95;;;18.20;99.90;;;;;;5043643;28;20151;-88
2023/07/26 10:06:49;;;;;;;4.90;2.97;;;18.00;99.90;;;;;;5057421;22;20171;-89
2023/07/26 10:09:16;;;;;;;3.95;2.05;;;18.00;99.90;;;;;;5034289;28;20129;-87
2023/07/26 10:11:43;;;;;;;4.43;2.80;;;18.00;99.90;;;;;;5043246;28;20036;-92
2023/07/26 10:14:19;;;;;;;9.90;2.75;;;17.60;99.90;;;;;;5059947;28;20029;-89
2023/07/26 10:16:46;;;;;;;4.20;2.42;;;18.00;99.90;;;;;;5044903;28;20033;-90
2023/07/26 10:19:16;;;;;;;2.50;2.20;;;18.00;99.90;;;;;;5043333;28;20033;-85
2023/07/26 10:21:43;;;;;;;4.32;2.40;;;18.10;99.90;;;;;;5032636;28;20025;-86
2023/07/26 10:24:11;;;;;;;3.67;2.55;;;18.10;99.90;;;;;;5033405;28;20034;-86
2023/07/26 10:26:37;;;;;;;4.43;2.80;;;17.90;99.90;;;;;;5032949;28;20049;-86
2023/07/26 10:29:03;;;;;;;11.65;2.85;;;18.10;99.90;;;;;;5031948;28;20102;-87
2023/07/26 10:31:30;;;;;;;6.38;1.90;;;18.50;99.90;;;;;;5032756;28;20354;-85
2023/07/26 10:33:57;;;;;;;3.65;2.83;;;18.10;99.90;;;;;;5032319;28;20047;-86
2023/07/26 10:36:31;;;;;;;5.95;2.42;;;18.10;99.90;;;;;;5032512;28;20041;-79
2023/07/26 10:39:01;;;;;;;2.83;2.00;;;18.10;99.90;;;;;;5034164;28;20033;-90
2023/07/26 10:41:29;;;;;;;2.53;2.33;;;18.30;99.90;;;;;;5035525;28;20105;-89
2023/07/26 10:44:21;;;;;;;4.10;2.35;;;18.30;99.90;;;;;;5037456;28;20049;-88
2023/07/26 10:46:53;;;;;;;7.68;2.58;;;18.40;99.90;;;;;;5040845;28;20032;-91
2023/07/26 10:49:29;;;;;;;4.38;2.42;;;18.40;99.90;;;;;;5056663;28;20028;-94
2023/07/26 10:52:01;;;;;;;4.32;2.50;;;18.40;99.90;;;;;;5052612;28;20017;-84
2023/07/26 10:54:35;;;;;;;3.80;2.38;;;18.40;99.90;;;;;;5043808;28;20033;-83
2023/07/26 10:57:21;;;;;;;4.22;2.20;;;18.40;99.90;;;;;;5038966;28;20389;-85
2023/07/26 11:00:06;;;;;;;4.13;2.47;;;18.40;99.90;;;;;;5049936;28;20103;-85
2023/07/26 11:02:35;;;;;;;8.32;2.33;;;18.40;99.90;;;;;;5044445;28;20021;-86
2023/07/26 11:05:03;;;;;;;1.80;1.67;;;18.40;99.90;;;;;;5039330;28;20496;-86
2023/07/26 11:08:07;;;;;;;3.28;2.15;;;18.40;99.90;;;;;;5050514;28;20059;-85
2023/07/26 11:10:38;;;;;;;2.90;2.03;;;18.40;99.90;;;;;;4941488;29;20016;-85
2023/07/26 11:13:08;;;;;;;4.85;2.60;;;18.40;99.90;;;;;;4939231;29;20079;-85
2023/07/26 11:15:36;;;;;;;2.70;2.17;;;18.50;99.90;;;;;;4985400;28;20033;-85
2023/07/26 11:18:02;;;;;;;3.03;2.13;;;19.10;99.90;;;;;;5047492;28;20033;-86
2023/07/26 11:20:27;;;;;;;8.75;2.35;;;18.60;99.90;;;;;;5040468;28;20100;-85
2023/07/26 11:22:53;;;;;;;3.28;2.30;;;18.70;99.90;;;;;;5051180;28;20028;-85
2023/07/26 11:25:22;;;;;;;5.40;2.90;;;18.70;99.90;;;;;;5036482;28;20024;-86
2023/07/26 11:27:48;;;;;;;2.60;2.22;;;18.90;99.90;;;;;;5050167;28;20013;-84
2023/07/26 11:30:18;;;;;;;3.45;2.38;;;18.70;99.90;;;;;;5046009;28;20496;-86
2023/07/26 11:32:49;;;;;;;4.93;2.90;;;18.70;99.90;;;;;;5034963;28;20048;-86
2023/07/26 11:35:18;;;;;;;3.08;2.35;;;18.70;99.90;;;;;;5046768;28;20104;-86
2023/07/26 11:38:14;;;;;;;4.03;2.03;;;18.70;99.90;;;;;;5039853;28;20036;-87
2023/07/26 11:40:41;;;;;;;5.68;2.00;;;18.60;99.90;;;;;;5049430;28;20025;-85
2023/07/26 11:43:07;;;;;;;10.07;2.50;;;19.20;99.90;;;;;;5034738;28;20025;-85
2023/07/26 11:45:40;;;;;;;3.10;2.50;;;18.70;99.90;;;;;;5051264;28;20021;-85
2023/07/26 11:48:08;;;;;;;6.93;3.05;;;18.60;99.90;;;;;;5040097;28;20478;-85
2023/07/26 11:50:35;;;;;;;3.55;2.67;;;18.50;99.90;;;;;;5046894;28;20056;-85
2023/07/26 11:53:08;;;;;;;3.58;2.45;;;18.50;99.90;;;;;;5038193;28;20053;-84
2023/07/26 11:55:34;;;;;;;4.30;3.00;;;18.50;99.90;;;;;;5044159;28;20108;-84
2023/07/26 11:58:03;;;;;;;3.33;2.65;;;18.60;99.90;;;;;;5037309;28;20037;-85
2023/07/26 12:00:31;;;;;;;4.22;2.40;;;18.90;99.90;;;;;;5041183;28;20071;-84
2023/07/26 12:02:57;;;;;;;3.08;2.47;;;18.70;99.90;;;;;;5052613;28;20063;-84
2023/07/26 12:05:25;;;;;;;4.05;2.70;;;18.80;99.90;;;;;;5053548;28;20021;-85
2023/07/26 12:07:53;;;;;;;2.83;2.58;;;18.90;99.90;;;;;;5041873;28;20652;-84
2023/07/26 12:10:29;;;;;;;3.22;2.38;;;19.00;99.90;;;;;;5046701;28;20029;-87
2023/07/26 12:12:56;;;;;;;12.20;3.03;;;19.00;99.90;;;;;;5047121;28;20025;-84
2023/07/26 12:15:22;;;;;;;3.42;2.40;;;19.10;99.90;;;;;;5053637;28;20029;-84
2023/07/26 12:17:54;;;;;;;5.53;2.90;;;19.00;99.90;;;;;;5053788;28;20590;-85
2023/07/26 12:20:22;;;;;;;5.15;2.72;;;19.10;99.90;;;;;;5053896;28;20029;-85
2023/07/26 12:22:56;;;;;;;3.00;2.70;;;19.10;99.90;;;;;;5055781;28;20021;-85
2023/07/26 12:25:33;;;;;;;5.22;2.78;;;19.10;99.90;;;;;;5052273;28;20093;-85
2023/07/26 12:27:58;;;;;;;3.67;3.38;;;19.00;99.90;;;;;;5053303;28;20032;-85
2023/07/26 12:30:26;;;;;;;3.30;2.40;;;19.10;99.90;;;;;;5052568;28;20384;-85
2023/07/26 12:33:11;;;;;;;3.35;3.05;;;19.10;99.90;;;;;;5050240;28;20120;-85
2023/07/26 12:35:38;;;;;;;4.50;2.92;;;19.20;99.90;;;;;;5050956;28;20024;-85
2023/07/26 12:38:08;;;;;;;5.57;3.13;;;19.20;99.90;;;;;;5053639;28;20561;-86
2023/07/26 12:40:34;;;;;;;2.97;2.33;;;19.10;99.90;;;;;;5052185;28;20048;-85
2023/07/26 12:43:00;;;;;;;3.42;3.10;;;19.60;99.90;;;;;;5052921;28;20477;-85
2023/07/26 12:45:25;;;;;;;3.38;2.65;;;19.10;99.90;;;;;;5053173;28;20373;-85
2023/07/26 12:47:51;;;;;;;5.13;2.88;;;19.10;99.90;;;;;;5053443;28;20082;-85
2023/07/26 12:50:16;;;;;;;4.68;2.75;;;19.30;99.90;;;;;;5054155;28;20514;-85
2023/07/26 12:52:42;;;;;;;4.45;2.97;;;19.20;99.90;;;;;;5053791;28;20029;-85
2023/07/26 12:55:08;;;;;;;2.47;2.28;;;19.30;99.90;;;;;;5053718;28;20049;-85
2023/07/26 12:57:34;;;;;;;3.40;2.58;;;19.30;99.90;;;;;;5053702;28;20064;-85
2023/07/26 12:59:59;;;;;;;2.72;2.30;;;19.30;99.90;;;;;;5053820;28;20057;-85